sensor_id;sensor_type;location;lat;lon;timestamp;temperature;humidity
3770;DHT22;1900;48.890;9.190;2023-09-08T00:02:28;25.90;45.60
3770;DHT22;1900;48.890;9.190;2023-09-08T00:04:54;25.90;45.70
3770;DHT22;1900;48.890;9.190;2023-09-08T00:07:20;25.90;45.70
3770;DHT22;1900;48.890;9.190;2023-09-08T00:09:46;25.90;45.70
3770;DHT22;1900;48.890;9.190;2023-09-08T00:12:12;25.80;45.70
3770;DHT22;1900;48.890;9.190;2023-09-08T00:14:38;25.80;45.70
3770;DHT22;1900;48.890;9.190;2023-09-08T00:17:04;25.70;45.70
3770;DHT22;1900;48.890;9.190;2023-09-08T00:19:30;25.70;45.70
3770;DHT22;1900;48.890;9.190;2023-09-08T00:21:56;25.60;45.70
3770;DHT22;1900;48.890;9.190;2023-09-08T00:24:22;25.60;45.80
3770;DHT22;1900;48.890;9.190;2023-09-08T00:26:48;25.50;45.70
3770;DHT22;1900;48.890;9.190;2023-09-08T00:29:14;25.50;45.80
3770;DHT22;1900;48.890;9.190;2023-09-08T00:31:41;25.40;45.80
3770;DHT22;1900;48.890;9.190;2023-09-08T00:34:07;25.40;45.90
3770;DHT22;1900;48.890;9.190;2023-09-08T00:36:33;25.40;46.00
3770;DHT22;1900;48.890;9.190;2023-09-08T00:38:59;25.30;46.00
3770;DHT22;1900;48.890;9.190;2023-09-08T00:41:24;25.30;46.00
3770;DHT22;1900;48.890;9.190;2023-09-08T00:43:50;25.30;46.10
3770;DHT22;1900;48.890;9.190;2023-09-08T00:46:17;25.20;46.00
3770;DHT22;1900;48.890;9.190;2023-09-08T00:48:42;25.20;46.10
3770;DHT22;1900;48.890;9.190;2023-09-08T00:51:09;25.10;46.70
3770;DHT22;1900;48.890;9.190;2023-09-08T00:53:36;25.10;46.10
3770;DHT22;1900;48.890;9.190;2023-09-08T00:56:02;25.10;46.20
3770;DHT22;1900;48.890;9.190;2023-09-08T00:58:29;25.10;46.50
3770;DHT22;1900;48.890;9.190;2023-09-08T01:00:54;25.00;46.30
3770;DHT22;1900;48.890;9.190;2023-09-08T01:03:24;25.00;46.30
3770;DHT22;1900;48.890;9.190;2023-09-08T01:05:50;25.00;46.30
3770;DHT22;1900;48.890;9.190;2023-09-08T01:08:17;24.90;46.30
3770;DHT22;1900;48.890;9.190;2023-09-08T01:10:43;24.90;46.30
3770;DHT22;1900;48.890;9.190;2023-09-08T01:13:10;24.80;46.20
3770;DHT22;1900;48.890;9.190;2023-09-08T01:15:36;24.80;46.30
3770;DHT22;1900;48.890;9.190;2023-09-08T01:18:01;24.80;46.30
3770;DHT22;1900;48.890;9.190;2023-09-08T01:20:30;24.80;46.40
3770;DHT22;1900;48.890;9.190;2023-09-08T01:23:12;24.80;46.50
3770;DHT22;1900;48.890;9.190;2023-09-08T01:25:57;24.70;46.60
3770;DHT22;1900;48.890;9.190;2023-09-08T01:28:26;24.70;46.60
3770;DHT22;1900;48.890;9.190;2023-09-08T01:30:52;24.60;46.50
3770;DHT22;1900;48.890;9.190;2023-09-08T01:33:19;24.60;46.50
3770;DHT22;1900;48.890;9.190;2023-09-08T01:35:46;24.60;46.50
3770;DHT22;1900;48.890;9.190;2023-09-08T01:38:12;24.60;46.70
3770;DHT22;1900;48.890;9.190;2023-09-08T01:40:37;24.60;46.70
3770;DHT22;1900;48.890;9.190;2023-09-08T01:43:03;24.50;46.70
3770;DHT22;1900;48.890;9.190;2023-09-08T01:45:29;24.50;46.80
3770;DHT22;1900;48.890;9.190;2023-09-08T01:47:55;24.50;46.80
3770;DHT22;1900;48.890;9.190;2023-09-08T01:50:20;24.50;46.80
3770;DHT22;1900;48.890;9.190;2023-09-08T01:52:48;24.50;46.80
3770;DHT22;1900;48.890;9.190;2023-09-08T01:55:14;24.50;46.80
3770;DHT22;1900;48.890;9.190;2023-09-08T01:57:42;24.50;46.80
3770;DHT22;1900;48.890;9.190;2023-09-08T02:00:08;24.50;46.80
3770;DHT22;1900;48.890;9.190;2023-09-08T02:02:38;24.50;46.80
3770;DHT22;1900;48.890;9.190;2023-09-08T02:05:04;24.40;46.80
3770;DHT22;1900;48.890;9.190;2023-09-08T02:07:29;24.40;46.80
3770;DHT22;1900;48.890;9.190;2023-09-08T02:09:56;24.40;46.90
3770;DHT22;1900;48.890;9.190;2023-09-08T02:12:22;24.30;46.80
3770;DHT22;1900;48.890;9.190;2023-09-08T02:14:48;24.30;46.80
3770;DHT22;1900;48.890;9.190;2023-09-08T02:17:13;24.30;46.80
3770;DHT22;1900;48.890;9.190;2023-09-08T02:19:39;24.30;46.90
3770;DHT22;1900;48.890;9.190;2023-09-08T02:22:05;24.30;46.90
3770;DHT22;1900;48.890;9.190;2023-09-08T02:24:30;24.30;47.00
3770;DHT22;1900;48.890;9.190;2023-09-08T02:26:57;24.20;46.90
3770;DHT22;1900;48.890;9.190;2023-09-08T02:29:23;24.20;47.00
3770;DHT22;1900;48.890;9.190;2023-09-08T02:31:49;24.20;47.00
3770;DHT22;1900;48.890;9.190;2023-09-08T02:34:14;24.20;47.00
3770;DHT22;1900;48.890;9.190;2023-09-08T02:36:40;24.20;47.00
3770;DHT22;1900;48.890;9.190;2023-09-08T02:39:06;24.20;47.10
3770;DHT22;1900;48.890;9.190;2023-09-08T02:41:33;24.20;47.10
3770;DHT22;1900;48.890;9.190;2023-09-08T02:44:00;24.20;47.00
3770;DHT22;1900;48.890;9.190;2023-09-08T02:46:25;24.20;47.10
3770;DHT22;1900;48.890;9.190;2023-09-08T02:48:53;24.20;47.10
3770;DHT22;1900;48.890;9.190;2023-09-08T02:51:18;24.10;47.20
3770;DHT22;1900;48.890;9.190;2023-09-08T02:53:44;24.10;47.20
3770;DHT22;1900;48.890;9.190;2023-09-08T02:56:10;24.10;47.20
3770;DHT22;1900;48.890;9.190;2023-09-08T02:58:35;24.10;47.30
3770;DHT22;1900;48.890;9.190;2023-09-08T03:01:28;24.10;47.30
3770;DHT22;1900;48.890;9.190;2023-09-08T03:03:54;24.10;47.40
3770;DHT22;1900;48.890;9.190;2023-09-08T03:06:20;24.10;47.30
3770;DHT22;1900;48.890;9.190;2023-09-08T03:08:47;24.10;47.40
3770;DHT22;1900;48.890;9.190;2023-09-08T03:11:13;24.10;47.30
3770;DHT22;1900;48.890;9.190;2023-09-08T03:13:39;24.10;47.40
3770;DHT22;1900;48.890;9.190;2023-09-08T03:16:06;24.00;47.30
3770;DHT22;1900;48.890;9.190;2023-09-08T03:18:33;24.00;48.00
3770;DHT22;1900;48.890;9.190;2023-09-08T03:20:59;24.00;47.50
3770;DHT22;1900;48.890;9.190;2023-09-08T03:23:38;24.00;47.50
3770;DHT22;1900;48.890;9.190;2023-09-08T03:26:04;24.00;47.50
3770;DHT22;1900;48.890;9.190;2023-09-08T03:28:32;24.00;47.50
3770;DHT22;1900;48.890;9.190;2023-09-08T03:31:00;24.00;47.50
3770;DHT22;1900;48.890;9.190;2023-09-08T03:33:26;24.00;47.50
3770;DHT22;1900;48.890;9.190;2023-09-08T03:35:52;24.00;47.50
3770;DHT22;1900;48.890;9.190;2023-09-08T03:38:17;24.00;47.50
3770;DHT22;1900;48.890;9.190;2023-09-08T03:40:43;24.00;47.60
3770;DHT22;1900;48.890;9.190;2023-09-08T03:43:09;24.00;47.60
3770;DHT22;1900;48.890;9.190;2023-09-08T03:45:35;23.90;47.50
3770;DHT22;1900;48.890;9.190;2023-09-08T03:48:00;23.90;47.60
3770;DHT22;1900;48.890;9.190;2023-09-08T03:50:26;23.90;47.60
3770;DHT22;1900;48.890;9.190;2023-09-08T03:52:52;23.90;47.60
3770;DHT22;1900;48.890;9.190;2023-09-08T03:55:19;23.90;47.60
3770;DHT22;1900;48.890;9.190;2023-09-08T03:57:45;23.90;47.70
3770;DHT22;1900;48.890;9.190;2023-09-08T04:00:11;23.80;47.60
3770;DHT22;1900;48.890;9.190;2023-09-08T04:02:42;23.80;47.60
3770;DHT22;1900;48.890;9.190;2023-09-08T04:05:08;23.80;47.60
3770;DHT22;1900;48.890;9.190;2023-09-08T04:07:36;23.80;47.60
3770;DHT22;1900;48.890;9.190;2023-09-08T04:10:02;23.80;47.60
3770;DHT22;1900;48.890;9.190;2023-09-08T04:12:28;23.80;47.60
3770;DHT22;1900;48.890;9.190;2023-09-08T04:14:54;23.70;47.50
3770;DHT22;1900;48.890;9.190;2023-09-08T04:17:20;23.70;47.50
3770;DHT22;1900;48.890;9.190;2023-09-08T04:19:46;23.70;47.50
3770;DHT22;1900;48.890;9.190;2023-09-08T04:22:11;23.60;47.50
3770;DHT22;1900;48.890;9.190;2023-09-08T04:24:37;23.60;47.50
3770;DHT22;1900;48.890;9.190;2023-09-08T04:27:03;23.60;47.60
3770;DHT22;1900;48.890;9.190;2023-09-08T04:29:30;23.60;47.60
3770;DHT22;1900;48.890;9.190;2023-09-08T04:31:55;23.50;47.60
3770;DHT22;1900;48.890;9.190;2023-09-08T04:34:21;23.50;47.60
3770;DHT22;1900;48.890;9.190;2023-09-08T04:36:47;23.50;47.60
3770;DHT22;1900;48.890;9.190;2023-09-08T04:39:12;23.40;47.50
3770;DHT22;1900;48.890;9.190;2023-09-08T04:41:40;23.40;47.50
3770;DHT22;1900;48.890;9.190;2023-09-08T04:44:06;23.40;47.50
3770;DHT22;1900;48.890;9.190;2023-09-08T04:46:32;23.30;47.50
3770;DHT22;1900;48.890;9.190;2023-09-08T04:48:59;23.30;47.60
3770;DHT22;1900;48.890;9.190;2023-09-08T04:51:24;23.30;47.60
3770;DHT22;1900;48.890;9.190;2023-09-08T04:53:50;23.30;47.60
3770;DHT22;1900;48.890;9.190;2023-09-08T04:56:16;23.30;47.70
3770;DHT22;1900;48.890;9.190;2023-09-08T04:58:42;23.30;47.80
3770;DHT22;1900;48.890;9.190;2023-09-08T05:01:08;23.30;47.80
3770;DHT22;1900;48.890;9.190;2023-09-08T05:03:34;23.20;47.70
3770;DHT22;1900;48.890;9.190;2023-09-08T05:05:59;23.20;47.70
3770;DHT22;1900;48.890;9.190;2023-09-08T05:08:27;23.10;47.60
3770;DHT22;1900;48.890;9.190;2023-09-08T05:10:54;23.10;47.80
3770;DHT22;1900;48.890;9.190;2023-09-08T05:13:20;23.10;47.80
3770;DHT22;1900;48.890;9.190;2023-09-08T05:15:48;23.10;47.90
3770;DHT22;1900;48.890;9.190;2023-09-08T05:18:14;23.10;48.00
3770;DHT22;1900;48.890;9.190;2023-09-08T05:20:40;23.10;48.00
3770;DHT22;1900;48.890;9.190;2023-09-08T05:23:06;23.10;48.00
3770;DHT22;1900;48.890;9.190;2023-09-08T05:25:32;23.10;48.00
3770;DHT22;1900;48.890;9.190;2023-09-08T05:27:59;23.10;48.10
3770;DHT22;1900;48.890;9.190;2023-09-08T05:30:26;23.10;48.00
3770;DHT22;1900;48.890;9.190;2023-09-08T05:32:51;23.10;48.10
3770;DHT22;1900;48.890;9.190;2023-09-08T05:35:17;23.10;48.00
3770;DHT22;1900;48.890;9.190;2023-09-08T05:37:43;23.10;48.10
3770;DHT22;1900;48.890;9.190;2023-09-08T05:40:08;23.10;48.20
3770;DHT22;1900;48.890;9.190;2023-09-08T05:42:34;23.10;48.20
3770;DHT22;1900;48.890;9.190;2023-09-08T05:45:00;23.10;48.30
3770;DHT22;1900;48.890;9.190;2023-09-08T05:47:26;23.10;48.30
3770;DHT22;1900;48.890;9.190;2023-09-08T05:49:53;23.10;48.40
3770;DHT22;1900;48.890;9.190;2023-09-08T05:52:18;23.10;48.50
3770;DHT22;1900;48.890;9.190;2023-09-08T05:54:45;23.10;48.50
3770;DHT22;1900;48.890;9.190;2023-09-08T05:57:11;23.10;48.60
3770;DHT22;1900;48.890;9.190;2023-09-08T05:59:37;23.20;48.80
3770;DHT22;1900;48.890;9.190;2023-09-08T06:02:03;23.20;48.90
3770;DHT22;1900;48.890;9.190;2023-09-08T06:04:29;23.30;49.00
3770;DHT22;1900;48.890;9.190;2023-09-08T06:06:57;23.30;49.00
3770;DHT22;1900;48.890;9.190;2023-09-08T06:09:23;23.30;49.10
3770;DHT22;1900;48.890;9.190;2023-09-08T06:11:49;23.40;49.30
3770;DHT22;1900;48.890;9.190;2023-09-08T06:14:15;23.40;49.30
3770;DHT22;1900;48.890;9.190;2023-09-08T06:16:42;23.50;49.30
3770;DHT22;1900;48.890;9.190;2023-09-08T06:19:08;23.50;49.40
3770;DHT22;1900;48.890;9.190;2023-09-08T06:21:34;23.60;49.50
3770;DHT22;1900;48.890;9.190;2023-09-08T06:24:00;23.60;49.50
3770;DHT22;1900;48.890;9.190;2023-09-08T06:26:25;23.70;49.60
3770;DHT22;1900;48.890;9.190;2023-09-08T06:28:52;23.70;49.40
3770;DHT22;1900;48.890;9.190;2023-09-08T06:31:18;23.70;48.80
3770;DHT22;1900;48.890;9.190;2023-09-08T06:33:44;23.70;49.20
3770;DHT22;1900;48.890;9.190;2023-09-08T06:36:10;23.70;49.30
3770;DHT22;1900;48.890;9.190;2023-09-08T06:38:35;23.70;49.40
3770;DHT22;1900;48.890;9.190;2023-09-08T06:41:08;23.80;49.60
3770;DHT22;1900;48.890;9.190;2023-09-08T06:43:34;23.80;49.90
3770;DHT22;1900;48.890;9.190;2023-09-08T06:46:04;23.80;49.90
3770;DHT22;1900;48.890;9.190;2023-09-08T06:48:31;23.90;50.00
3770;DHT22;1900;48.890;9.190;2023-09-08T06:50:57;24.00;50.10
3770;DHT22;1900;48.890;9.190;2023-09-08T06:53:24;24.00;50.10
3770;DHT22;1900;48.890;9.190;2023-09-08T06:55:50;24.10;50.30
3770;DHT22;1900;48.890;9.190;2023-09-08T06:58:16;24.20;50.40
3770;DHT22;1900;48.890;9.190;2023-09-08T07:00:42;24.20;50.50
3770;DHT22;1900;48.890;9.190;2023-09-08T07:03:08;24.30;50.60
3770;DHT22;1900;48.890;9.190;2023-09-08T07:05:34;24.40;50.60
3770;DHT22;1900;48.890;9.190;2023-09-08T07:08:01;24.50;50.60
3770;DHT22;1900;48.890;9.190;2023-09-08T07:10:27;24.50;50.70
3770;DHT22;1900;48.890;9.190;2023-09-08T07:12:53;24.50;50.80
3770;DHT22;1900;48.890;9.190;2023-09-08T07:15:19;24.70;50.90
3770;DHT22;1900;48.890;9.190;2023-09-08T07:17:46;24.70;50.80
3770;DHT22;1900;48.890;9.190;2023-09-08T07:20:11;24.80;50.90
3770;DHT22;1900;48.890;9.190;2023-09-08T07:22:38;24.80;50.90
3770;DHT22;1900;48.890;9.190;2023-09-08T07:25:04;24.90;51.00
3770;DHT22;1900;48.890;9.190;2023-09-08T07:27:30;25.00;51.10
3770;DHT22;1900;48.890;9.190;2023-09-08T07:29:56;25.00;51.20
3770;DHT22;1900;48.890;9.190;2023-09-08T07:32:22;25.10;51.40
3770;DHT22;1900;48.890;9.190;2023-09-08T07:34:50;25.10;51.40
3770;DHT22;1900;48.890;9.190;2023-09-08T07:37:22;25.30;51.60
3770;DHT22;1900;48.890;9.190;2023-09-08T07:39:51;25.40;51.70
3770;DHT22;1900;48.890;9.190;2023-09-08T07:42:18;25.40;51.80
3770;DHT22;1900;48.890;9.190;2023-09-08T07:44:45;25.50;51.90
3770;DHT22;1900;48.890;9.190;2023-09-08T07:47:11;25.70;52.00
3770;DHT22;1900;48.890;9.190;2023-09-08T07:49:45;25.80;52.00
3770;DHT22;1900;48.890;9.190;2023-09-08T07:52:12;25.90;52.10
3770;DHT22;1900;48.890;9.190;2023-09-08T07:54:37;25.90;51.80
3770;DHT22;1900;48.890;9.190;2023-09-08T07:57:03;26.00;51.90
3770;DHT22;1900;48.890;9.190;2023-09-08T07:59:29;26.00;52.00
3770;DHT22;1900;48.890;9.190;2023-09-08T08:01:55;26.10;52.10
3770;DHT22;1900;48.890;9.190;2023-09-08T08:04:21;26.20;52.10
3770;DHT22;1900;48.890;9.190;2023-09-08T08:06:46;26.30;52.10
3770;DHT22;1900;48.890;9.190;2023-09-08T08:09:13;26.30;52.20
3770;DHT22;1900;48.890;9.190;2023-09-08T08:11:40;26.40;52.10
3770;DHT22;1900;48.890;9.190;2023-09-08T08:14:05;26.50;52.20
3770;DHT22;1900;48.890;9.190;2023-09-08T08:16:31;26.50;52.20
3770;DHT22;1900;48.890;9.190;2023-09-08T08:18:57;26.60;52.20
3770;DHT22;1900;48.890;9.190;2023-09-08T08:21:22;26.70;52.30
3770;DHT22;1900;48.890;9.190;2023-09-08T08:23:49;26.70;52.30
3770;DHT22;1900;48.890;9.190;2023-09-08T08:26:14;26.80;52.50
3770;DHT22;1900;48.890;9.190;2023-09-08T08:28:40;26.90;52.70
3770;DHT22;1900;48.890;9.190;2023-09-08T08:31:06;27.00;52.80
3770;DHT22;1900;48.890;9.190;2023-09-08T08:33:32;27.00;52.80
3770;DHT22;1900;48.890;9.190;2023-09-08T08:35:57;27.10;53.00
3770;DHT22;1900;48.890;9.190;2023-09-08T08:38:23;27.20;52.90
3770;DHT22;1900;48.890;9.190;2023-09-08T08:40:49;27.30;53.00
3770;DHT22;1900;48.890;9.190;2023-09-08T08:43:14;27.40;53.10
3770;DHT22;1900;48.890;9.190;2023-09-08T08:45:42;27.50;53.20
3770;DHT22;1900;48.890;9.190;2023-09-08T08:48:08;27.60;53.40
3770;DHT22;1900;48.890;9.190;2023-09-08T08:50:35;27.70;53.40
3770;DHT22;1900;48.890;9.190;2023-09-08T08:53:01;27.80;53.30
3770;DHT22;1900;48.890;9.190;2023-09-08T08:55:30;27.90;53.30
3770;DHT22;1900;48.890;9.190;2023-09-08T08:58:05;28.00;53.30
3770;DHT22;1900;48.890;9.190;2023-09-08T09:00:34;28.10;53.40
3770;DHT22;1900;48.890;9.190;2023-09-08T09:03:01;28.20;53.40
3770;DHT22;1900;48.890;9.190;2023-09-08T09:05:29;28.20;53.50
3770;DHT22;1900;48.890;9.190;2023-09-08T09:07:58;28.30;53.60
3770;DHT22;1900;48.890;9.190;2023-09-08T09:10:24;28.40;53.50
3770;DHT22;1900;48.890;9.190;2023-09-08T09:12:49;28.40;53.50
3770;DHT22;1900;48.890;9.190;2023-09-08T09:15:16;28.60;53.70
3770;DHT22;1900;48.890;9.190;2023-09-08T09:17:41;28.70;53.90
3770;DHT22;1900;48.890;9.190;2023-09-08T09:20:16;28.80;54.10
3770;DHT22;1900;48.890;9.190;2023-09-08T09:22:44;28.90;54.20
3770;DHT22;1900;48.890;9.190;2023-09-08T09:25:23;29.00;54.20
3770;DHT22;1900;48.890;9.190;2023-09-08T09:28:02;29.10;54.00
3770;DHT22;1900;48.890;9.190;2023-09-08T09:30:49;29.20;54.10
3770;DHT22;1900;48.890;9.190;2023-09-08T09:33:16;29.30;54.20
3770;DHT22;1900;48.890;9.190;2023-09-08T09:35:47;29.50;54.40
3770;DHT22;1900;48.890;9.190;2023-09-08T09:38:13;29.60;54.50
3770;DHT22;1900;48.890;9.190;2023-09-08T09:40:39;29.70;54.50
3770;DHT22;1900;48.890;9.190;2023-09-08T09:43:06;29.80;54.40
3770;DHT22;1900;48.890;9.190;2023-09-08T09:45:36;29.90;54.40
3770;DHT22;1900;48.890;9.190;2023-09-08T09:48:06;30.10;54.20
3770;DHT22;1900;48.890;9.190;2023-09-08T09:50:37;30.10;54.10
3770;DHT22;1900;48.890;9.190;2023-09-08T09:53:12;30.20;54.30
3770;DHT22;1900;48.890;9.190;2023-09-08T09:55:39;30.40;54.40
3770;DHT22;1900;48.890;9.190;2023-09-08T09:58:06;30.50;54.50
3770;DHT22;1900;48.890;9.190;2023-09-08T10:00:34;30.50;54.40
3770;DHT22;1900;48.890;9.190;2023-09-08T10:03:01;30.70;54.50
3770;DHT22;1900;48.890;9.190;2023-09-08T10:05:28;30.80;54.60
3770;DHT22;1900;48.890;9.190;2023-09-08T10:07:54;30.90;54.80
3770;DHT22;1900;48.890;9.190;2023-09-08T10:10:21;31.10;55.10
3770;DHT22;1900;48.890;9.190;2023-09-08T10:12:52;31.20;55.10
3770;DHT22;1900;48.890;9.190;2023-09-08T10:15:22;31.40;55.20
3770;DHT22;1900;48.890;9.190;2023-09-08T10:17:55;31.50;55.20
3770;DHT22;1900;48.890;9.190;2023-09-08T10:20:23;31.70;55.20
3770;DHT22;1900;48.890;9.190;2023-09-08T10:22:53;31.80;55.20
3770;DHT22;1900;48.890;9.190;2023-09-08T10:25:21;31.90;55.00
3770;DHT22;1900;48.890;9.190;2023-09-08T10:27:50;32.10;55.10
3770;DHT22;1900;48.890;9.190;2023-09-08T10:30:16;32.20;55.20
3770;DHT22;1900;48.890;9.190;2023-09-08T10:32:43;32.30;55.20
3770;DHT22;1900;48.890;9.190;2023-09-08T10:35:09;32.40;55.10
3770;DHT22;1900;48.890;9.190;2023-09-08T10:37:36;32.60;55.10
3770;DHT22;1900;48.890;9.190;2023-09-08T10:40:22;32.70;55.10
3770;DHT22;1900;48.890;9.190;2023-09-08T10:42:48;32.80;55.10
3770;DHT22;1900;48.890;9.190;2023-09-08T10:45:16;32.90;55.40
3770;DHT22;1900;48.890;9.190;2023-09-08T10:50:19;33.20;54.80
3770;DHT22;1900;48.890;9.190;2023-09-08T10:52:56;33.30;54.60
3770;DHT22;1900;48.890;9.190;2023-09-08T10:55:42;33.40;54.80
3770;DHT22;1900;48.890;9.190;2023-09-08T10:58:10;33.50;54.70
3770;DHT22;1900;48.890;9.190;2023-09-08T11:00:43;33.70;54.80
3770;DHT22;1900;48.890;9.190;2023-09-08T11:03:10;33.80;54.70
3770;DHT22;1900;48.890;9.190;2023-09-08T11:05:35;33.90;55.00
3770;DHT22;1900;48.890;9.190;2023-09-08T11:08:01;34.00;55.00
3770;DHT22;1900;48.890;9.190;2023-09-08T11:10:27;34.10;54.90
3770;DHT22;1900;48.890;9.190;2023-09-08T11:12:54;34.20;54.90
3770;DHT22;1900;48.890;9.190;2023-09-08T11:15:20;34.30;55.00
3770;DHT22;1900;48.890;9.190;2023-09-08T11:17:46;34.50;55.20
3770;DHT22;1900;48.890;9.190;2023-09-08T11:20:25;34.60;55.00
3770;DHT22;1900;48.890;9.190;2023-09-08T11:22:51;34.70;55.00
3770;DHT22;1900;48.890;9.190;2023-09-08T11:25:16;34.90;54.80
3770;DHT22;1900;48.890;9.190;2023-09-08T11:27:42;34.90;54.10
3770;DHT22;1900;48.890;9.190;2023-09-08T11:30:10;35.00;53.40
3770;DHT22;1900;48.890;9.190;2023-09-08T11:32:37;35.00;53.70
3770;DHT22;1900;48.890;9.190;2023-09-08T11:35:08;35.10;54.00
3770;DHT22;1900;48.890;9.190;2023-09-08T11:37:37;35.20;53.70
3770;DHT22;1900;48.890;9.190;2023-09-08T11:40:07;35.30;53.80
3770;DHT22;1900;48.890;9.190;2023-09-08T11:42:40;35.30;52.60
3770;DHT22;1900;48.890;9.190;2023-09-08T11:45:14;35.30;52.60
3770;DHT22;1900;48.890;9.190;2023-09-08T11:47:41;35.40;52.80
3770;DHT22;1900;48.890;9.190;2023-09-08T11:50:11;35.40;52.70
3770;DHT22;1900;48.890;9.190;2023-09-08T11:52:47;35.40;53.00
3770;DHT22;1900;48.890;9.190;2023-09-08T11:55:14;35.50;52.10
3770;DHT22;1900;48.890;9.190;2023-09-08T11:57:40;35.50;52.50
3770;DHT22;1900;48.890;9.190;2023-09-08T12:00:07;35.60;53.00
3770;DHT22;1900;48.890;9.190;2023-09-08T12:02:36;35.60;53.30
3770;DHT22;1900;48.890;9.190;2023-09-08T12:05:03;35.70;53.70
3770;DHT22;1900;48.890;9.190;2023-09-08T12:07:29;35.90;54.10
3770;DHT22;1900;48.890;9.190;2023-09-08T12:09:54;36.10;54.30
3770;DHT22;1900;48.890;9.190;2023-09-08T12:12:20;36.20;54.50
3770;DHT22;1900;48.890;9.190;2023-09-08T12:14:46;36.40;54.50
3770;DHT22;1900;48.890;9.190;2023-09-08T12:17:12;36.60;54.50
3770;DHT22;1900;48.890;9.190;2023-09-08T12:19:42;36.70;54.00
3770;DHT22;1900;48.890;9.190;2023-09-08T12:22:08;36.90;53.70
3770;DHT22;1900;48.890;9.190;2023-09-08T12:27:22;37.10;53.70
3770;DHT22;1900;48.890;9.190;2023-09-08T12:29:55;37.20;53.50
3770;DHT22;1900;48.890;9.190;2023-09-08T12:32:22;37.30;53.20
3770;DHT22;1900;48.890;9.190;2023-09-08T12:34:48;37.40;53.10
3770;DHT22;1900;48.890;9.190;2023-09-08T12:37:14;37.40;52.90
3770;DHT22;1900;48.890;9.190;2023-09-08T12:39:40;37.50;52.10
3770;DHT22;1900;48.890;9.190;2023-09-08T12:42:05;37.60;52.50
3770;DHT22;1900;48.890;9.190;2023-09-08T12:44:31;37.50;52.00
3770;DHT22;1900;48.890;9.190;2023-09-08T12:46:57;37.60;51.90
3770;DHT22;1900;48.890;9.190;2023-09-08T12:49:22;37.60;52.30
3770;DHT22;1900;48.890;9.190;2023-09-08T12:51:48;37.70;52.80
3770;DHT22;1900;48.890;9.190;2023-09-08T12:54:14;37.80;52.90
3770;DHT22;1900;48.890;9.190;2023-09-08T12:56:39;38.00;53.20
3770;DHT22;1900;48.890;9.190;2023-09-08T12:59:05;38.10;53.20
3770;DHT22;1900;48.890;9.190;2023-09-08T13:01:31;38.30;52.80
3770;DHT22;1900;48.890;9.190;2023-09-08T13:03:56;38.30;52.90
3770;DHT22;1900;48.890;9.190;2023-09-08T13:06:22;38.40;51.10
3770;DHT22;1900;48.890;9.190;2023-09-08T13:08:47;38.40;49.00
3770;DHT22;1900;48.890;9.190;2023-09-08T13:11:13;38.30;48.30
3770;DHT22;1900;48.890;9.190;2023-09-08T13:13:39;38.10;49.00
3770;DHT22;1900;48.890;9.190;2023-09-08T13:16:04;38.10;49.40
3770;DHT22;1900;48.890;9.190;2023-09-08T13:18:30;38.00;49.50
3770;DHT22;1900;48.890;9.190;2023-09-08T13:21:01;38.00;50.00
3770;DHT22;1900;48.890;9.190;2023-09-08T13:23:27;38.00;50.20
3770;DHT22;1900;48.890;9.190;2023-09-08T13:25:52;38.10;50.70
3770;DHT22;1900;48.890;9.190;2023-09-08T13:28:18;38.20;51.00
3770;DHT22;1900;48.890;9.190;2023-09-08T13:30:44;38.20;51.00
3770;DHT22;1900;48.890;9.190;2023-09-08T13:33:10;38.40;51.80
3770;DHT22;1900;48.890;9.190;2023-09-08T13:35:35;38.60;51.90
3770;DHT22;1900;48.890;9.190;2023-09-08T13:38:01;38.70;51.60
3770;DHT22;1900;48.890;9.190;2023-09-08T13:40:28;38.80;51.90
3770;DHT22;1900;48.890;9.190;2023-09-08T13:42:54;38.90;51.90
3770;DHT22;1900;48.890;9.190;2023-09-08T13:45:20;39.10;52.10
3770;DHT22;1900;48.890;9.190;2023-09-08T13:47:45;39.30;51.80
3770;DHT22;1900;48.890;9.190;2023-09-08T13:50:11;39.40;51.80
3770;DHT22;1900;48.890;9.190;2023-09-08T13:52:37;39.50;51.90
3770;DHT22;1900;48.890;9.190;2023-09-08T13:55:06;39.70;52.00
3770;DHT22;1900;48.890;9.190;2023-09-08T13:57:31;39.80;52.00
3770;DHT22;1900;48.890;9.190;2023-09-08T13:59:57;39.90;51.70
3770;DHT22;1900;48.890;9.190;2023-09-08T14:02:23;40.00;50.80
3770;DHT22;1900;48.890;9.190;2023-09-08T14:04:49;40.10;50.40
3770;DHT22;1900;48.890;9.190;2023-09-08T14:07:14;40.10;50.20
3770;DHT22;1900;48.890;9.190;2023-09-08T14:09:40;40.10;50.10
3770;DHT22;1900;48.890;9.190;2023-09-08T14:12:06;40.10;50.00
3770;DHT22;1900;48.890;9.190;2023-09-08T14:14:31;40.10;50.10
3770;DHT22;1900;48.890;9.190;2023-09-08T14:16:57;40.10;50.50
3770;DHT22;1900;48.890;9.190;2023-09-08T14:19:23;40.20;50.80
3770;DHT22;1900;48.890;9.190;2023-09-08T14:21:48;40.20;50.90
3770;DHT22;1900;48.890;9.190;2023-09-08T14:24:14;40.40;51.10
3770;DHT22;1900;48.890;9.190;2023-09-08T14:26:40;40.50;51.00
3770;DHT22;1900;48.890;9.190;2023-09-08T14:29:05;40.50;50.20
3770;DHT22;1900;48.890;9.190;2023-09-08T14:31:31;40.50;50.30
3770;DHT22;1900;48.890;9.190;2023-09-08T14:33:57;40.60;50.60
3770;DHT22;1900;48.890;9.190;2023-09-08T14:36:23;40.70;49.90
3770;DHT22;1900;48.890;9.190;2023-09-08T14:38:49;40.60;49.50
3770;DHT22;1900;48.890;9.190;2023-09-08T14:41:15;40.60;49.70
3770;DHT22;1900;48.890;9.190;2023-09-08T14:43:41;40.60;49.70
3770;DHT22;1900;48.890;9.190;2023-09-08T14:46:07;40.60;49.80
3770;DHT22;1900;48.890;9.190;2023-09-08T14:48:33;40.70;49.30
3770;DHT22;1900;48.890;9.190;2023-09-08T14:50:59;40.60;49.20
3770;DHT22;1900;48.890;9.190;2023-09-08T14:53:26;40.60;48.90
3770;DHT22;1900;48.890;9.190;2023-09-08T14:55:54;40.50;48.60
3770;DHT22;1900;48.890;9.190;2023-09-08T14:58:23;40.50;48.70
3770;DHT22;1900;48.890;9.190;2023-09-08T15:00:49;40.40;48.80
3770;DHT22;1900;48.890;9.190;2023-09-08T15:03:15;40.40;48.90
3770;DHT22;1900;48.890;9.190;2023-09-08T15:05:40;40.40;48.90
3770;DHT22;1900;48.890;9.190;2023-09-08T15:08:06;40.40;48.90
3770;DHT22;1900;48.890;9.190;2023-09-08T15:10:32;40.40;48.80
3770;DHT22;1900;48.890;9.190;2023-09-08T15:12:58;40.30;48.00
3770;DHT22;1900;48.890;9.190;2023-09-08T15:15:24;40.20;48.00
3770;DHT22;1900;48.890;9.190;2023-09-08T15:17:53;40.10;47.50
3770;DHT22;1900;48.890;9.190;2023-09-08T15:20:20;40.00;47.50
3770;DHT22;1900;48.890;9.190;2023-09-08T15:22:46;39.90;47.40
3770;DHT22;1900;48.890;9.190;2023-09-08T15:25:12;39.70;47.50
3770;DHT22;1900;48.890;9.190;2023-09-08T15:27:38;39.60;47.20
3770;DHT22;1900;48.890;9.190;2023-09-08T15:30:05;39.50;47.20
3770;DHT22;1900;48.890;9.190;2023-09-08T15:32:31;39.40;47.20
3770;DHT22;1900;48.890;9.190;2023-09-08T15:34:56;39.20;47.10
3770;DHT22;1900;48.890;9.190;2023-09-08T15:37:22;39.10;47.00
3770;DHT22;1900;48.890;9.190;2023-09-08T15:39:48;39.00;47.00
3770;DHT22;1900;48.890;9.190;2023-09-08T15:42:13;38.80;46.90
3770;DHT22;1900;48.890;9.190;2023-09-08T15:44:39;38.70;46.70
3770;DHT22;1900;48.890;9.190;2023-09-08T15:47:05;38.60;46.70
3770;DHT22;1900;48.890;9.190;2023-09-08T15:49:30;38.50;46.40
3770;DHT22;1900;48.890;9.190;2023-09-08T15:51:56;38.30;46.10
3770;DHT22;1900;48.890;9.190;2023-09-08T15:54:22;38.10;46.10
3770;DHT22;1900;48.890;9.190;2023-09-08T15:56:47;37.90;46.20
3770;DHT22;1900;48.890;9.190;2023-09-08T15:59:16;37.80;46.20
3770;DHT22;1900;48.890;9.190;2023-09-08T16:01:42;37.70;46.00
3770;DHT22;1900;48.890;9.190;2023-09-08T16:04:08;37.50;46.00
3770;DHT22;1900;48.890;9.190;2023-09-08T16:06:36;37.30;46.00